Time;durP1;ratioP1;P1;durP2;ratioP2;P2;SDS_P1;SDS_P2;PMS_P1;PMS_P2;Temp;Humidity;BMP_temperature;BMP_pressure;BME280_temperature;BME280_humidity;BME280_pressure;Samples;Min_cycle;Max_cycle;Signal;HPM_P1;HPM_P2
2021/12/15 00:02:12;;;;;;;45.70;30.77;;;3.50;90.90;;;;;;5036537;28;20220;-69
2021/12/15 00:04:42;;;;;;;44.67;32.53;;;3.40;90.90;;;;;;5035287;28;20220;-69
2021/12/15 00:07:10;;;;;;;43.30;32.63;;;3.30;90.80;;;;;;5033481;28;20214;-69
2021/12/15 00:09:38;;;;;;;40.60;31.10;;;3.30;90.70;;;;;;5043922;28;20211;-69
2021/12/15 00:12:06;;;;;;;49.13;36.53;;;3.30;90.70;;;;;;5048357;28;20226;-69
2021/12/15 00:14:33;;;;;;;53.97;39.27;;;3.20;90.70;;;;;;5051928;28;20228;-69
2021/12/15 00:17:01;;;;;;;63.00;37.50;;;3.20;90.70;;;;;;5047900;28;20215;-69
2021/12/15 00:19:29;;;;;;;51.10;36.03;;;3.20;90.80;;;;;;5022880;28;20215;-69
2021/12/15 00:21:57;;;;;;;47.57;35.53;;;3.10;90.80;;;;;;5037916;28;20208;-69
2021/12/15 00:24:25;;;;;;;99.30;37.43;;;3.10;90.80;;;;;;5033735;28;20706;-69
2021/12/15 00:26:55;;;;;;;183.53;41.10;;;3.10;90.80;;;;;;5041822;28;20212;-69
2021/12/15 00:29:23;;;;;;;207.00;42.53;;;3.10;90.70;;;;;;5043411;28;20296;-69
2021/12/15 00:31:52;;;;;;;98.90;35.83;;;3.00;90.80;;;;;;5044249;28;20329;-69
2021/12/15 00:34:20;;;;;;;57.03;38.07;;;3.00;91.00;;;;;;5031936;28;20756;-69
2021/12/15 00:36:48;;;;;;;61.83;38.47;;;3.00;91.30;;;;;;5032462;28;20223;-69
2021/12/15 00:39:20;;;;;;;46.63;34.70;;;3.00;91.60;;;;;;5033524;28;20235;-69
2021/12/15 00:41:47;;;;;;;62.43;39.33;;;3.00;91.80;;;;;;5027077;28;20227;-69
2021/12/15 00:44:15;;;;;;;54.23;37.03;;;3.00;91.90;;;;;;4994663;28;20323;-69
2021/12/15 00:46:43;;;;;;;51.73;34.80;;;3.00;92.00;;;;;;5033752;28;20224;-69
2021/12/15 00:49:11;;;;;;;80.33;40.23;;;3.00;92.10;;;;;;5027144;28;20308;-69
2021/12/15 00:51:40;;;;;;;66.63;41.23;;;3.00;91.70;;;;;;5044236;28;20219;-69
2021/12/15 00:54:08;;;;;;;65.27;40.90;;;3.00;91.30;;;;;;5031813;28;20234;-69
2021/12/15 00:56:36;;;;;;;64.27;40.17;;;2.90;91.10;;;;;;5037861;28;20211;-69
2021/12/15 00:59:05;;;;;;;61.93;39.30;;;2.90;90.90;;;;;;5021086;28;20223;-69
2021/12/15 01:01:34;;;;;;;55.90;37.20;;;2.80;90.80;;;;;;5033000;28;20206;-69
2021/12/15 01:04:03;;;;;;;56.17;37.13;;;2.80;90.90;;;;;;5030704;28;20314;-69
2021/12/15 01:06:32;;;;;;;54.23;36.27;;;2.80;91.00;;;;;;5020164;28;20227;-69
2021/12/15 01:09:04;;;;;;;51.77;36.80;;;2.70;91.10;;;;;;4999716;28;20288;-69
2021/12/15 01:19:45;;;;;;;49.57;34.87;;;2.80;91.30;;;;;;5016284;28;20254;-69
2021/12/15 01:20:09;;;;;;;43.17;33.47;;;2.70;91.50;;;;;;5038742;28;20291;-69
2021/12/15 01:22:44;;;;;;;55.37;39.77;;;2.70;91.40;;;;;;5041734;28;20207;-69
2021/12/15 01:25:20;;;;;;;57.03;38.87;;;2.80;91.40;;;;;;5030491;28;20283;-69
2021/12/15 01:27:48;;;;;;;69.10;37.47;;;2.80;91.40;;;;;;5036952;28;20315;-69
2021/12/15 01:30:19;;;;;;;72.37;39.60;;;2.70;91.40;;;;;;5031573;28;20244;-69
2021/12/15 01:32:46;;;;;;;256.27;48.50;;;2.70;91.40;;;;;;5036074;28;20700;-69
2021/12/15 01:35:15;;;;;;;209.97;47.80;;;2.70;91.40;;;;;;5020234;28;20306;-69
2021/12/15 01:37:43;;;;;;;93.10;37.60;;;2.70;91.50;;;;;;5035521;28;20315;-69
2021/12/15 01:40:19;;;;;;;111.63;43.53;;;2.70;91.60;;;;;;5023616;28;20238;-69
2021/12/15 01:42:47;;;;;;;116.13;41.53;;;2.80;91.50;;;;;;5027788;28;20207;-69
2021/12/15 01:48:07;;;;;;;137.07;43.27;;;2.70;91.60;;;;;;5020033;28;20220;-69
2021/12/15 01:50:35;;;;;;;71.80;41.70;;;2.70;91.80;;;;;;5036400;28;20226;-69
2021/12/15 01:53:05;;;;;;;146.97;47.33;;;2.70;92.00;;;;;;5046836;28;20218;-69
2021/12/15 01:55:33;;;;;;;118.27;49.30;;;2.70;92.00;;;;;;5026447;28;20234;-69
2021/12/15 01:58:00;;;;;;;149.73;52.87;;;2.70;92.10;;;;;;5040662;28;20262;-69
2021/12/15 02:00:37;;;;;;;153.60;52.30;;;2.70;92.40;;;;;;5036721;28;20293;-69
2021/12/15 02:03:06;;;;;;;238.90;52.87;;;2.70;92.40;;;;;;5045770;28;20246;-69
2021/12/15 02:05:39;;;;;;;90.10;45.53;;;2.70;92.40;;;;;;5038031;28;20329;-69
2021/12/15 02:08:09;;;;;;;73.60;45.57;;;2.60;92.40;;;;;;5024665;28;20223;-69
2021/12/15 02:10:38;;;;;;;74.20;45.50;;;2.60;92.50;;;;;;5035273;28;20621;-69
2021/12/15 02:13:10;;;;;;;83.70;49.20;;;2.60;92.50;;;;;;5034514;28;20221;-69
2021/12/15 02:15:41;;;;;;;90.93;43.43;;;2.50;92.40;;;;;;5037652;28;20230;-69
2021/12/15 02:18:12;;;;;;;114.63;43.00;;;2.50;92.60;;;;;;5030804;28;20367;-69
2021/12/15 02:20:56;;;;;;;77.23;45.50;;;2.50;92.20;;;;;;5035135;28;20647;-69
2021/12/15 02:23:32;;;;;;;115.47;49.33;;;2.40;92.20;;;;;;5042455;28;20207;-69
2021/12/15 02:26:03;;;;;;;72.00;45.27;;;2.40;92.20;;;;;;5028575;28;20242;-69
2021/12/15 02:28:30;;;;;;;67.07;43.47;;;2.40;92.20;;;;;;5025377;28;20212;-69
2021/12/15 02:31:08;;;;;;;71.13;44.63;;;2.40;92.10;;;;;;5034610;28;20327;-69
2021/12/15 02:38:51;;;;;;;442.80;50.97;;;2.30;91.90;;;;;;5015941;28;20220;-69
2021/12/15 02:41:23;;;;;;;278.83;48.10;;;2.30;91.80;;;;;;5011725;28;20214;-69
2021/12/15 02:43:51;;;;;;;363.30;49.03;;;2.20;91.70;;;;;;5016736;28;20229;-69
2021/12/15 02:46:19;;;;;;;167.43;44.43;;;2.10;91.70;;;;;;5016197;28;20557;-68
2021/12/15 02:48:49;;;;;;;98.13;42.77;;;2.00;91.60;;;;;;5015655;28;20236;-68
2021/12/15 02:51:17;;;;;;;111.07;42.03;;;2.00;91.50;;;;;;5031833;28;20216;-68
2021/12/15 02:53:45;;;;;;;82.20;44.83;;;1.90;91.40;;;;;;5010330;28;20550;-68
2021/12/15 02:56:14;;;;;;;74.30;42.93;;;1.80;91.40;;;;;;5026237;28;20219;-68
2021/12/15 02:58:50;;;;;;;179.07;50.43;;;1.80;91.40;;;;;;5016839;28;20200;-68
2021/12/15 03:01:33;;;;;;;75.27;42.80;;;1.80;91.50;;;;;;5018467;28;20238;-68
2021/12/15 03:07:19;;;;;;;62.27;40.17;;;1.70;91.50;;;;;;4973160;28;20329;-68
2021/12/15 03:15:29;;;;;;;63.57;39.77;;;1.60;91.40;;;;;;5023320;28;20319;-68
2021/12/15 03:18:10;;;;;;;57.50;37.53;;;1.60;91.50;;;;;;5023092;28;20208;-68
2021/12/15 03:20:41;;;;;;;54.47;36.90;;;1.70;91.40;;;;;;5032774;28;20205;-68
2021/12/15 03:23:11;;;;;;;55.57;39.03;;;1.70;91.40;;;;;;5030859;28;20234;-68
2021/12/15 03:25:39;;;;;;;54.00;36.57;;;1.70;91.40;;;;;;5025184;28;20714;-68
2021/12/15 03:37:05;;;;;;;55.60;37.03;;;1.60;91.10;;;;;;4953813;29;20685;-68
2021/12/15 03:39:43;;;;;;;58.20;38.73;;;1.50;91.00;;;;;;4997098;28;20300;-68
2021/12/15 03:42:16;;;;;;;53.50;36.60;;;1.50;91.10;;;;;;5013385;28;20217;-68
2021/12/15 03:44:46;;;;;;;57.40;38.53;;;1.50;91.20;;;;;;5016213;28;20538;-68
2021/12/15 03:47:18;;;;;;;62.73;37.77;;;1.60;91.10;;;;;;5022459;28;20229;-68
2021/12/15 03:49:45;;;;;;;77.53;39.97;;;1.50;90.70;;;;;;5019923;28;20226;-68
2021/12/15 03:52:13;;;;;;;57.30;38.20;;;1.50;90.60;;;;;;5015129;28;20310;-68
2021/12/15 03:54:41;;;;;;;55.77;39.13;;;1.50;90.70;;;;;;5011161;28;20568;-68
2021/12/15 03:57:09;;;;;;;56.77;39.13;;;1.50;91.10;;;;;;5006640;28;20668;-68
2021/12/15 03:59:41;;;;;;;59.07;38.37;;;1.50;91.00;;;;;;5019859;28;20219;-68
2021/12/15 04:02:11;;;;;;;75.50;40.33;;;1.50;91.10;;;;;;5022752;28;20639;-68
2021/12/15 04:04:40;;;;;;;65.57;39.57;;;1.50;91.10;;;;;;5014585;28;20333;-68
2021/12/15 04:07:09;;;;;;;73.73;39.77;;;1.50;90.90;;;;;;5020600;28;20294;-68
2021/12/15 04:09:37;;;;;;;82.30;41.00;;;1.50;91.00;;;;;;5014140;28;20246;-68
2021/12/15 04:12:05;;;;;;;99.63;42.13;;;1.50;91.10;;;;;;5015292;28;20228;-68
2021/12/15 04:14:44;;;;;;;130.43;42.77;;;1.40;91.10;;;;;;5018294;28;20224;-68
2021/12/15 04:17:36;;;;;;;73.60;40.27;;;1.40;91.30;;;;;;5007699;28;20623;-68
2021/12/15 04:20:09;;;;;;;94.27;40.57;;;1.40;91.20;;;;;;4999887;28;20246;-68
2021/12/15 04:22:37;;;;;;;68.50;38.57;;;1.30;91.30;;;;;;5012410;28;20242;-68
2021/12/15 04:25:12;;;;;;;69.63;39.33;;;1.30;91.40;;;;;;5013587;28;20632;-68
2021/12/15 04:27:40;;;;;;;61.87;39.17;;;1.30;91.30;;;;;;5019853;28;20222;-68
2021/12/15 04:30:09;;;;;;;61.50;39.60;;;1.30;91.30;;;;;;5011396;28;20208;-68
2021/12/15 04:32:48;;;;;;;57.30;39.40;;;1.30;91.40;;;;;;5036299;28;20249;-68
2021/12/15 04:35:15;;;;;;;50.50;35.03;;;1.30;91.40;;;;;;5020146;28;20561;-68
2021/12/15 04:37:45;;;;;;;50.27;36.03;;;1.30;91.40;;;;;;5045436;28;20251;-68
2021/12/15 04:40:14;;;;;;;49.27;36.37;;;1.30;91.30;;;;;;5007486;28;20235;-68
2021/12/15 04:42:43;;;;;;;53.90;36.33;;;1.30;91.30;;;;;;5047775;28;20208;-68
2021/12/15 04:45:14;;;;;;;52.93;35.43;;;1.30;91.30;;;;;;5033193;28;20215;-68
2021/12/15 04:47:46;;;;;;;51.60;35.23;;;1.20;91.20;;;;;;5040749;28;20229;-68
2021/12/15 04:50:14;;;;;;;55.03;38.33;;;1.30;91.20;;;;;;5039293;28;20215;-68
2021/12/15 04:52:41;;;;;;;46.63;34.50;;;1.30;91.10;;;;;;5036030;28;20223;-68
2021/12/15 04:55:10;;;;;;;43.53;31.83;;;1.30;91.00;;;;;;5031915;28;20241;-69
2021/12/15 04:57:37;;;;;;;45.17;32.73;;;1.30;91.00;;;;;;5042104;28;20212;-69
2021/12/15 05:00:13;;;;;;;45.77;33.73;;;1.20;91.30;;;;;;5022904;28;20210;-69
2021/12/15 05:02:41;;;;;;;39.53;30.67;;;1.20;91.10;;;;;;5037145;28;20219;-69
2021/12/15 05:05:09;;;;;;;42.57;30.67;;;1.20;91.20;;;;;;5034425;28;20289;-69
2021/12/15 05:07:37;;;;;;;40.10;31.43;;;1.20;91.10;;;;;;5018165;28;20247;-69
2021/12/15 05:10:08;;;;;;;54.23;38.13;;;1.20;91.10;;;;;;5042886;28;20219;-69
2021/12/15 05:12:37;;;;;;;55.70;39.80;;;1.30;91.20;;;;;;5033307;28;20246;-69
2021/12/15 05:15:07;;;;;;;68.47;42.50;;;1.30;91.20;;;;;;5031836;28;20238;-68
2021/12/15 05:17:35;;;;;;;70.03;44.70;;;1.30;91.20;;;;;;5015104;28;20543;-68
2021/12/15 05:20:05;;;;;;;66.60;43.40;;;1.20;91.40;;;;;;5042296;28;20214;-68
2021/12/15 05:22:33;;;;;;;65.60;43.90;;;1.20;91.10;;;;;;5039207;28;20260;-68
2021/12/15 05:25:02;;;;;;;58.03;41.33;;;1.20;91.20;;;;;;5041174;28;20236;-68
2021/12/15 05:27:29;;;;;;;66.60;41.97;;;1.20;91.30;;;;;;5016983;28;20529;-68
2021/12/15 05:29:57;;;;;;;62.50;42.07;;;1.20;91.40;;;;;;5037274;28;20219;-68
2021/12/15 05:32:25;;;;;;;59.07;40.37;;;1.20;91.50;;;;;;5027698;28;20251;-68
2021/12/15 05:34:56;;;;;;;65.37;40.90;;;1.20;91.70;;;;;;5050623;28;20233;-68
2021/12/15 05:37:24;;;;;;;71.80;44.80;;;1.20;91.70;;;;;;5049176;28;20332;-68
2021/12/15 05:39:52;;;;;;;62.27;42.00;;;1.30;91.90;;;;;;5043441;28;20217;-68
2021/12/15 05:42:21;;;;;;;63.00;42.67;;;1.30;91.90;;;;;;5039712;28;20223;-68
2021/12/15 05:44:50;;;;;;;64.13;42.83;;;1.30;91.80;;;;;;5034725;28;20239;-68
2021/12/15 05:47:20;;;;;;;61.17;41.53;;;1.30;91.80;;;;;;5034002;28;20662;-68
2021/12/15 05:49:48;;;;;;;65.70;41.57;;;1.30;91.70;;;;;;5032740;28;20223;-68
2021/12/15 05:52:16;;;;;;;54.70;38.73;;;1.30;91.70;;;;;;5022092;28;20555;-69
2021/12/15 05:54:43;;;;;;;56.13;38.23;;;1.30;91.80;;;;;;5047310;28;20643;-69
2021/12/15 05:57:11;;;;;;;57.50;39.37;;;1.20;91.70;;;;;;5047118;28;20225;-68
2021/12/15 05:59:39;;;;;;;55.77;38.43;;;1.20;91.70;;;;;;5019898;28;21233;-68
2021/12/15 06:02:07;;;;;;;59.20;39.70;;;1.20;91.60;;;;;;5022391;28;20212;-68
2021/12/15 06:04:35;;;;;;;58.23;40.77;;;1.20;91.60;;;;;;5031856;28;20214;-68
2021/12/15 06:07:04;;;;;;;61.87;41.43;;;1.30;91.50;;;;;;5036066;28;20207;-68
2021/12/15 06:09:32;;;;;;;53.37;37.83;;;1.30;91.50;;;;;;5035129;28;20270;-68
2021/12/15 06:12:01;;;;;;;54.67;38.90;;;1.20;91.40;;;;;;5045218;28;20273;-68
2021/12/15 06:14:30;;;;;;;54.47;37.83;;;1.30;91.40;;;;;;5033460;28;20592;-68
2021/12/15 06:17:07;;;;;;;54.07;36.87;;;1.20;91.40;;;;;;5036604;28;20684;-69
2021/12/15 06:19:35;;;;;;;56.00;37.60;;;1.20;91.40;;;;;;5051458;28;20218;-69
2021/12/15 06:22:04;;;;;;;51.33;36.87;;;1.20;91.40;;;;;;5044207;28;20210;-69
2021/12/15 06:24:32;;;;;;;56.73;38.53;;;1.20;91.40;;;;;;5050028;28;20211;-69
2021/12/15 06:27:05;;;;;;;51.03;36.10;;;1.20;91.30;;;;;;5053625;28;20211;-69
2021/12/15 06:29:33;;;;;;;58.53;36.77;;;1.20;91.20;;;;;;5052000;28;20210;-69
2021/12/15 06:32:04;;;;;;;51.60;35.90;;;1.20;91.20;;;;;;5045319;28;20238;-69
2021/12/15 06:34:31;;;;;;;48.27;34.43;;;1.20;91.10;;;;;;5040360;28;20647;-69
2021/12/15 06:36:59;;;;;;;47.27;33.43;;;1.20;91.00;;;;;;5020013;28;20326;-69
2021/12/15 06:39:27;;;;;;;47.37;34.27;;;1.20;90.90;;;;;;5038885;28;20567;-69
2021/12/15 06:41:54;;;;;;;48.70;34.57;;;1.20;90.90;;;;;;5035666;28;20210;-69
2021/12/15 06:44:22;;;;;;;49.67;34.43;;;1.20;90.90;;;;;;5047485;28;20220;-69
2021/12/15 07:00:39;;;;;;;53.07;33.37;;;1.00;91.00;;;;;;5022513;28;20289;-69
2021/12/15 07:03:08;;;;;;;49.27;33.00;;;1.00;91.00;;;;;;5044546;28;20546;-69
2021/12/15 07:05:35;;;;;;;48.13;32.33;;;1.00;91.00;;;;;;5041318;28;20211;-69
2021/12/15 07:08:06;;;;;;;44.43;29.97;;;1.10;91.00;;;;;;5037106;28;20296;-69
2021/12/15 07:10:37;;;;;;;45.30;30.20;;;1.10;91.10;;;;;;5033213;28;20241;-69
2021/12/15 07:13:06;;;;;;;46.53;29.03;;;1.10;91.10;;;;;;5047098;28;20227;-69
2021/12/15 07:15:36;;;;;;;41.70;29.73;;;1.20;91.20;;;;;;5041862;28;20230;-69
2021/12/15 07:18:08;;;;;;;43.63;29.90;;;1.20;91.20;;;;;;5037317;28;20756;-69
2021/12/15 07:23:12;;;;;;;43.07;29.83;;;1.20;91.10;;;;;;5042856;28;20519;-69
2021/12/15 07:25:42;;;;;;;38.93;29.00;;;1.20;91.00;;;;;;5020465;28;20308;-69
2021/12/15 07:28:15;;;;;;;46.20;30.07;;;1.20;91.00;;;;;;5021161;28;20218;-69
2021/12/15 07:30:43;;;;;;;43.60;29.53;;;1.30;91.10;;;;;;5035268;28;20220;-69
2021/12/15 07:33:12;;;;;;;40.40;28.80;;;1.30;91.10;;;;;;5030346;28;20253;-69
2021/12/15 07:35:40;;;;;;;46.30;31.00;;;1.30;91.10;;;;;;5044334;28;20236;-69
2021/12/15 07:38:09;;;;;;;59.00;33.27;;;1.40;91.10;;;;;;5027912;28;20232;-69
2021/12/15 07:40:39;;;;;;;50.13;29.57;;;1.40;91.10;;;;;;5038305;28;20218;-69
2021/12/15 07:43:23;;;;;;;41.87;29.20;;;1.40;91.40;;;;;;5032404;28;20343;-69
2021/12/15 07:45:59;;;;;;;44.70;30.30;;;1.40;91.40;;;;;;5028201;28;20283;-69
2021/12/15 07:48:34;;;;;;;57.00;30.97;;;1.40;91.50;;;;;;5033589;28;20229;-69
2021/12/15 07:51:06;;;;;;;82.13;33.37;;;1.40;91.60;;;;;;5033853;28;20290;-69
2021/12/15 07:53:34;;;;;;;47.73;30.47;;;1.40;91.70;;;;;;5031731;28;20216;-69
2021/12/15 07:56:01;;;;;;;45.60;29.90;;;1.50;91.70;;;;;;5029371;28;20660;-70
2021/12/15 07:58:29;;;;;;;41.00;30.33;;;1.50;91.80;;;;;;5034599;28;20697;-70
2021/12/15 08:00:59;;;;;;;45.67;30.63;;;1.50;91.80;;;;;;5053865;28;20220;-70
2021/12/15 08:03:30;;;;;;;45.63;30.97;;;1.60;91.90;;;;;;5034581;28;20214;-69
2021/12/15 08:05:58;;;;;;;44.60;29.13;;;1.70;91.90;;;;;;5028412;28;20276;-69
2021/12/15 08:08:25;;;;;;;49.20;30.47;;;1.70;91.80;;;;;;5050218;28;20211;-69
2021/12/15 08:10:56;;;;;;;43.27;30.17;;;1.80;91.80;;;;;;5027729;28;20664;-69
2021/12/15 08:13:26;;;;;;;40.40;30.03;;;1.90;91.70;;;;;;5036864;28;20211;-69
2021/12/15 08:16:19;;;;;;;46.60;32.57;;;1.90;91.60;;;;;;5036777;28;20246;-69
2021/12/15 08:18:47;;;;;;;54.97;36.73;;;2.00;91.50;;;;;;5039004;28;20200;-70
2021/12/15 08:21:15;;;;;;;58.70;35.03;;;2.10;91.50;;;;;;5032333;28;20280;-71
2021/12/15 08:23:42;;;;;;;58.03;36.03;;;2.10;91.50;;;;;;5033188;28;20207;-71
2021/12/15 08:26:10;;;;;;;50.80;35.00;;;2.20;91.50;;;;;;5039296;28;20205;-70
2021/12/15 08:28:38;;;;;;;51.47;32.00;;;2.30;91.40;;;;;;5020209;28;20224;-70
2021/12/15 08:31:06;;;;;;;75.77;35.93;;;2.30;91.30;;;;;;5034333;28;20218;-70
2021/12/15 08:33:34;;;;;;;55.67;34.67;;;2.40;91.30;;;;;;5033169;28;20222;-71
2021/12/15 08:36:12;;;;;;;54.37;34.03;;;2.40;91.20;;;;;;5043586;28;20550;-70
2021/12/15 08:38:42;;;;;;;55.10;32.53;;;2.40;91.20;;;;;;5045159;28;20314;-69
2021/12/15 08:41:26;;;;;;;49.50;29.93;;;2.50;91.20;;;;;;5044772;28;20210;-71
2021/12/15 08:43:54;;;;;;;36.77;28.90;;;2.50;91.20;;;;;;5033350;28;20606;-69
2021/12/15 08:46:29;;;;;;;39.23;29.90;;;2.60;91.20;;;;;;5040065;28;20217;-70
2021/12/15 08:48:57;;;;;;;38.60;28.90;;;2.60;91.20;;;;;;5039654;28;20633;-70
2021/12/15 08:51:27;;;;;;;41.20;29.50;;;2.70;91.10;;;;;;5048935;28;20218;-69
2021/12/15 08:53:59;;;;;;;43.77;30.73;;;2.70;91.10;;;;;;5033219;28;20222;-71
2021/12/15 08:56:27;;;;;;;60.00;32.80;;;2.80;91.10;;;;;;5026899;28;20243;-70
2021/12/15 08:58:55;;;;;;;52.83;34.03;;;2.80;91.00;;;;;;5033240;28;20211;-70
2021/12/15 09:01:24;;;;;;;56.50;32.73;;;2.80;91.00;;;;;;5035239;28;20211;-70
2021/12/15 09:03:52;;;;;;;52.60;31.97;;;2.80;91.10;;;;;;5031896;28;20634;-70
2021/12/15 09:06:21;;;;;;;67.37;32.67;;;2.80;91.10;;;;;;5022203;28;20211;-70
2021/12/15 09:08:49;;;;;;;66.87;33.60;;;2.90;91.10;;;;;;5026445;28;20214;-70
2021/12/15 09:11:20;;;;;;;78.73;33.80;;;2.90;91.10;;;;;;5025351;28;20219;-70
2021/12/15 09:13:51;;;;;;;78.93;34.87;;;2.90;91.10;;;;;;5034660;28;20234;-69
2021/12/15 09:16:22;;;;;;;80.53;36.83;;;3.00;91.10;;;;;;5046369;28;20242;-70
2021/12/15 09:18:51;;;;;;;105.60;39.50;;;3.00;91.10;;;;;;5034503;28;20230;-69
2021/12/15 09:21:22;;;;;;;72.53;34.20;;;3.10;91.20;;;;;;5035350;28;20210;-69
2021/12/15 09:23:50;;;;;;;59.83;33.43;;;3.10;91.30;;;;;;5038680;28;20222;-70
2021/12/15 09:26:22;;;;;;;75.53;36.50;;;3.20;91.40;;;;;;5042835;28;20220;-72
2021/12/15 09:28:50;;;;;;;71.27;38.10;;;3.20;91.30;;;;;;5042030;28;20211;-70
2021/12/15 09:31:18;;;;;;;91.10;38.90;;;3.30;91.30;;;;;;5049752;28;20215;-70
2021/12/15 09:33:49;;;;;;;154.23;40.07;;;3.30;91.30;;;;;;5041456;28;20218;-70
2021/12/15 09:36:19;;;;;;;73.03;39.33;;;3.30;91.30;;;;;;5008860;28;20247;-70
2021/12/15 09:38:50;;;;;;;83.80;42.03;;;3.40;91.30;;;;;;5043499;28;20297;-71
2021/12/15 09:41:20;;;;;;;79.33;42.17;;;3.40;91.30;;;;;;5027453;28;20213;-70
2021/12/15 09:43:51;;;;;;;101.43;41.50;;;3.50;91.40;;;;;;5027784;28;20610;-69
2021/12/15 10:02:47;;;;;;;64.10;39.67;;;4.00;90.90;;;;;;5042172;28;20703;-70
2021/12/15 10:11:40;;;;;;;66.60;41.50;;;4.20;90.80;;;;;;5027263;28;20273;-69
2021/12/15 10:19:53;;;;;;;65.23;40.80;;;4.60;91.10;;;;;;5046576;28;20226;-70
2021/12/15 10:25:07;;;;;;;79.20;44.37;;;4.90;91.00;;;;;;5013335;28;20217;-70
2021/12/15 10:27:50;;;;;;;68.50;42.47;;;5.00;91.00;;;;;;5052309;28;20217;-70
2021/12/15 10:30:26;;;;;;;78.90;48.50;;;5.10;91.10;;;;;;5046425;28;20212;-71
2021/12/15 10:32:56;;;;;;;72.43;45.97;;;5.20;91.00;;;;;;5024292;28;20297;-70
2021/12/15 10:35:36;;;;;;;62.90;44.40;;;5.30;90.90;;;;;;5038766;28;20312;-70
2021/12/15 10:38:31;;;;;;;62.87;43.10;;;5.40;90.70;;;;;;5043577;28;20621;-71
2021/12/15 10:41:10;;;;;;;59.63;40.70;;;5.50;90.60;;;;;;5027966;28;20222;-71
2021/12/15 10:43:51;;;;;;;55.93;39.17;;;5.50;90.30;;;;;;5024049;28;20302;-70
2021/12/15 10:46:18;;;;;;;59.13;40.90;;;5.60;90.20;;;;;;5033507;28;20214;-70
2021/12/15 10:48:49;;;;;;;52.93;40.40;;;5.60;90.10;;;;;;5052167;28;20220;-71
2021/12/15 10:51:41;;;;;;;63.90;42.40;;;5.70;90.10;;;;;;5027300;28;20275;-68
2021/12/15 10:54:38;;;;;;;60.93;43.23;;;5.70;90.30;;;;;;5037956;28;20567;-71
2021/12/15 10:57:13;;;;;;;62.73;40.97;;;5.70;90.40;;;;;;5015019;28;20236;-70
2021/12/15 10:59:46;;;;;;;60.97;40.30;;;5.70;90.40;;;;;;5045145;28;20211;-71
2021/12/15 11:02:33;;;;;;;58.77;40.00;;;5.60;90.50;;;;;;5026543;28;20214;-70
2021/12/15 11:05:02;;;;;;;52.53;40.17;;;5.70;90.50;;;;;;5039921;28;20229;-71
2021/12/15 11:07:40;;;;;;;65.37;39.30;;;5.60;90.50;;;;;;5034434;28;20223;-70
2021/12/15 11:10:25;;;;;;;60.73;39.03;;;5.60;90.60;;;;;;5041901;28;20299;-71
2021/12/15 11:13:14;;;;;;;53.67;37.87;;;5.70;90.60;;;;;;5024953;28;20320;-70
2021/12/15 11:15:45;;;;;;;59.47;38.80;;;5.70;90.50;;;;;;5049157;28;20295;-70
2021/12/15 11:18:19;;;;;;;58.60;37.37;;;5.70;90.60;;;;;;5016273;28;20287;-70
2021/12/15 11:20:56;;;;;;;53.03;37.67;;;5.70;90.50;;;;;;5048641;28;20222;-70
2021/12/15 11:23:32;;;;;;;53.67;36.77;;;5.70;90.80;;;;;;5043556;28;20210;-72
2021/12/15 11:26:02;;;;;;;50.33;36.97;;;5.70;90.60;;;;;;5038207;28;20230;-70
2021/12/15 11:28:43;;;;;;;46.50;35.37;;;5.70;90.60;;;;;;5033922;28;20580;-72
2021/12/15 11:31:18;;;;;;;55.17;37.50;;;5.70;90.60;;;;;;5038532;28;20224;-71
2021/12/15 11:33:49;;;;;;;45.93;34.50;;;5.80;90.60;;;;;;5042624;28;20700;-70
2021/12/15 11:36:31;;;;;;;53.27;36.20;;;5.80;90.60;;;;;;5039165;28;20666;-70
2021/12/15 11:39:16;;;;;;;61.47;39.20;;;5.80;90.70;;;;;;5035145;28;20236;-72
2021/12/15 11:41:47;;;;;;;52.20;37.73;;;5.90;90.70;;;;;;5023449;28;20228;-70
2021/12/15 11:44:37;;;;;;;63.13;42.80;;;5.90;90.80;;;;;;5025784;28;20244;-69
2021/12/15 11:47:08;;;;;;;61.37;40.67;;;5.90;90.80;;;;;;5020936;28;20304;-71
2021/12/15 11:49:39;;;;;;;67.53;44.00;;;6.00;90.90;;;;;;5033501;28;20213;-71
2021/12/15 11:52:14;;;;;;;63.87;44.40;;;6.00;90.90;;;;;;5025121;28;20315;-70
2021/12/15 11:54:45;;;;;;;71.77;45.60;;;6.00;91.10;;;;;;5029780;28;20295;-69
2021/12/15 11:57:29;;;;;;;68.50;46.70;;;6.10;90.90;;;;;;5042463;28;20257;-73
2021/12/15 12:00:05;;;;;;;67.90;46.97;;;6.10;90.80;;;;;;5042291;28;20220;-69
2021/12/15 12:02:40;;;;;;;62.23;44.70;;;6.10;90.70;;;;;;5048210;28;20687;-70
2021/12/15 12:05:10;;;;;;;58.20;41.23;;;6.10;90.70;;;;;;5038656;28;20242;-72
2021/12/15 12:07:47;;;;;;;57.20;42.23;;;6.20;90.80;;;;;;5024472;28;20219;-70
2021/12/15 12:10:23;;;;;;;63.13;41.63;;;6.20;90.80;;;;;;5032987;28;20225;-69
2021/12/15 12:13:04;;;;;;;63.23;43.97;;;6.20;90.70;;;;;;5019186;28;20674;-70
2021/12/15 12:15:37;;;;;;;61.27;42.87;;;6.30;90.70;;;;;;5042584;28;20221;-71
2021/12/15 12:18:14;;;;;;;58.10;41.80;;;6.30;90.80;;;;;;5033550;28;20230;-70
2021/12/15 12:20:48;;;;;;;61.83;44.97;;;6.40;90.80;;;;;;5030122;28;20276;-69
2021/12/15 12:23:20;;;;;;;66.03;46.53;;;6.30;90.70;;;;;;5027329;28;20221;-70
2021/12/15 12:25:53;;;;;;;66.27;46.00;;;6.30;90.70;;;;;;5027864;28;20210;-70
2021/12/15 12:28:27;;;;;;;75.80;48.87;;;6.30;90.60;;;;;;5036665;28;20203;-70
2021/12/15 12:31:02;;;;;;;73.73;50.40;;;6.30;90.60;;;;;;5037873;28;20339;-72
2021/12/15 12:33:30;;;;;;;79.37;51.03;;;6.30;90.70;;;;;;5051913;28;20227;-70
2021/12/15 12:36:06;;;;;;;74.00;50.70;;;6.20;90.80;;;;;;5041406;28;20211;-70
2021/12/15 12:38:39;;;;;;;83.23;53.67;;;6.20;90.80;;;;;;5035021;28;20244;-70
2021/12/15 12:41:23;;;;;;;83.47;53.10;;;6.20;90.80;;;;;;5043846;28;20230;-70
2021/12/15 12:43:59;;;;;;;91.00;55.70;;;6.20;91.10;;;;;;5027381;28;20550;-71
2021/12/15 13:00:59;;;;;;;92.13;59.57;;;6.40;91.40;;;;;;5029155;28;20218;-70
2021/12/15 13:03:41;;;;;;;87.50;59.13;;;6.50;91.50;;;;;;5015376;28;20569;-70
2021/12/15 13:06:41;;;;;;;92.93;59.17;;;6.50;91.50;;;;;;5042453;28;20235;-71
2021/12/15 13:09:16;;;;;;;87.93;57.63;;;6.50;91.50;;;;;;5005490;28;20233;-72
2021/12/15 13:11:50;;;;;;;82.37;55.60;;;6.50;91.50;;;;;;5017557;28;20303;-70
2021/12/15 13:14:31;;;;;;;93.90;58.73;;;6.50;91.50;;;;;;5015001;28;20230;-70
2021/12/15 13:17:03;;;;;;;85.67;55.40;;;6.50;91.50;;;;;;5039055;28;20225;-72
2021/12/15 13:19:32;;;;;;;85.07;55.30;;;6.60;91.60;;;;;;5037992;28;20209;-72
2021/12/15 13:31:24;;;;;;;82.43;57.00;;;6.80;91.50;;;;;;5050377;28;20654;-72
2021/12/15 13:33:53;;;;;;;82.77;57.67;;;6.80;91.40;;;;;;5052147;28;20658;-72
2021/12/15 13:36:31;;;;;;;83.53;57.47;;;6.90;91.80;;;;;;5042516;28;20228;-71
2021/12/15 13:39:07;;;;;;;82.47;56.80;;;6.90;91.50;;;;;;5049360;28;20301;-70
2021/12/15 13:41:44;;;;;;;87.33;60.33;;;7.00;91.50;;;;;;5036129;28;20206;-70
2021/12/15 13:44:25;;;;;;;88.30;60.13;;;7.00;91.40;;;;;;5021593;28;20519;-72
2021/12/15 13:46:54;;;;;;;84.93;58.13;;;7.10;91.50;;;;;;5045621;28;20305;-70
2021/12/15 13:49:24;;;;;;;97.20;62.27;;;7.10;91.40;;;;;;5048541;28;20603;-69
2021/12/15 13:51:54;;;;;;;88.50;60.40;;;7.10;91.40;;;;;;5052601;28;20643;-73
2021/12/15 13:54:35;;;;;;;93.37;63.93;;;7.20;91.40;;;;;;5036276;28;20252;-73
2021/12/15 13:57:13;;;;;;;90.80;62.80;;;7.30;91.50;;;;;;5006702;28;20247;-70
2021/12/15 13:59:43;;;;;;;92.27;64.40;;;7.30;91.40;;;;;;5027740;28;20207;-70
2021/12/15 14:02:35;;;;;;;92.50;65.37;;;7.30;91.40;;;;;;5021606;28;20230;-70
2021/12/15 14:05:18;;;;;;;93.30;62.83;;;7.30;91.40;;;;;;5038438;28;20658;-73
2021/12/15 14:07:50;;;;;;;88.70;63.80;;;7.40;91.40;;;;;;5008424;28;20224;-70
2021/12/15 14:10:20;;;;;;;90.17;64.37;;;7.40;91.40;;;;;;5041371;28;20803;-70
2021/12/15 14:12:50;;;;;;;91.67;64.33;;;7.40;91.40;;;;;;5018947;28;20722;-70
2021/12/15 14:15:35;;;;;;;97.67;65.47;;;7.40;91.40;;;;;;5036126;28;20214;-72
2021/12/15 14:18:08;;;;;;;85.47;63.17;;;7.40;91.40;;;;;;5046868;28;20316;-73
2021/12/15 14:20:46;;;;;;;91.77;64.13;;;7.40;91.40;;;;;;5027628;28;20614;-72
2021/12/15 14:23:29;;;;;;;90.87;64.10;;;7.40;91.40;;;;;;5035606;28;20225;-70
2021/12/15 14:26:00;;;;;;;92.90;64.20;;;7.40;91.40;;;;;;5021670;28;20228;-71
2021/12/15 14:28:41;;;;;;;90.07;64.20;;;7.40;91.40;;;;;;5026071;28;20318;-70
2021/12/15 14:31:16;;;;;;;86.23;62.07;;;7.40;91.40;;;;;;5028259;28;20218;-70
2021/12/15 14:33:47;;;;;;;83.50;59.37;;;7.40;91.30;;;;;;5035247;28;20219;-69
2021/12/15 14:36:41;;;;;;;84.13;59.77;;;7.40;91.30;;;;;;5023827;28;20218;-72
2021/12/15 14:39:19;;;;;;;89.90;60.17;;;7.40;91.30;;;;;;5048911;28;20639;-70
2021/12/15 14:41:57;;;;;;;82.07;58.00;;;7.40;91.30;;;;;;5040780;28;20225;-70
2021/12/15 14:44:28;;;;;;;85.70;59.77;;;7.40;91.30;;;;;;5038564;28;20608;-70